Time;durP1;ratioP1;P1;durP2;ratioP2;P2;SDS_P1;SDS_P2;PMS_P1;PMS_P2;Temp;Humidity;BMP_temperature;BMP_pressure;BME280_temperature;BME280_humidity;BME280_pressure;Samples;Min_cycle;Max_cycle;Signal;HPM_P1;HPM_P2
2023/06/10 00:00:52;;;;;;;;;;;17.60;99.90;;;;;;5092657;28;19927;-66
2023/06/10 00:03:18;;;;;;;;;;;17.60;99.90;;;;;;5110394;28;19927;-66
2023/06/10 00:05:43;;;;;;;;;;;17.60;99.90;;;;;;5111340;28;19923;-66
2023/06/10 00:08:10;;;;;;;;;;;17.50;99.90;;;;;;5071379;28;20419;-66
2023/06/10 00:10:36;;;;;;;;;;;17.50;99.90;;;;;;5108794;28;20281;-66
2023/06/10 00:13:03;;;;;;;;;;;17.40;99.90;;;;;;5108456;28;19932;-67
2023/06/10 00:15:29;;;;;;;;;;;17.50;99.90;;;;;;5106883;28;20369;-66
2023/06/10 00:17:55;;;;;;;;;;;17.40;99.90;;;;;;5111112;28;19934;-64
2023/06/10 00:20:23;;;;;;;;;;;17.40;99.90;;;;;;5110794;28;19963;-65
2023/06/10 00:22:49;;;;;;;;;;;17.30;99.90;;;;;;5111246;28;19967;-65
2023/06/10 00:25:15;;;;;;;;;;;17.30;99.90;;;;;;5102981;28;19966;-65
2023/06/10 00:27:40;;;;;;;;;;;17.20;99.90;;;;;;5083771;28;20348;-65
2023/06/10 00:30:06;;;;;;;;;;;17.20;99.90;;;;;;5110518;28;19934;-66
2023/06/10 00:32:33;;;;;;;;;;;17.10;99.90;;;;;;5093064;28;20384;-65
2023/06/10 00:34:58;;;;;;;;;;;17.00;99.90;;;;;;5089442;28;20437;-65
2023/06/10 00:37:24;;;;;;;;;;;17.00;99.90;;;;;;5092299;28;19928;-65
2023/06/10 00:39:49;;;;;;;;;;;17.00;99.90;;;;;;5109096;28;19935;-65
2023/06/10 00:42:15;;;;;;;;;;;16.90;99.90;;;;;;5092179;28;19931;-65
2023/06/10 00:44:40;;;;;;;;;;;16.90;99.90;;;;;;5107681;28;19935;-65
2023/06/10 00:47:07;;;;;;;;;;;16.80;99.90;;;;;;5110844;28;20432;-66
2023/06/10 00:49:33;;;;;;;;;;;16.80;99.90;;;;;;5110726;28;19923;-66
2023/06/10 00:51:58;;;;;;;;;;;16.80;99.90;;;;;;5111016;28;19976;-66
2023/06/10 00:54:25;;;;;;;;;;;16.70;99.90;;;;;;5110266;28;20409;-66
2023/06/10 00:56:51;;;;;;;;;;;16.70;99.90;;;;;;5110473;28;19930;-65
2023/06/10 00:59:17;;;;;;;;;;;16.70;99.90;;;;;;5110225;28;19924;-66
2023/06/10 01:01:43;;;;;;;;;;;16.60;99.90;;;;;;5111369;28;20385;-66
2023/06/10 01:04:12;;;;;;;;;;;16.60;99.90;;;;;;5114288;28;19931;-66
2023/06/10 01:06:47;;;;;;;;;;;16.50;99.90;;;;;;5090899;28;19928;-66
2023/06/10 01:09:24;;;;;;;;;;;16.50;99.90;;;;;;5114128;28;19928;-66
2023/06/10 01:12:01;;;;;;;;;;;16.50;99.90;;;;;;5100080;28;19927;-65
2023/06/10 01:14:27;;;;;;;;;;;16.50;99.90;;;;;;5113739;28;19924;-66
2023/06/10 01:16:53;;;;;;;;;;;16.40;99.90;;;;;;5106117;28;20022;-65
2023/06/10 01:19:18;;;;;;;;;;;16.40;99.90;;;;;;5078751;28;19977;-65
2023/06/10 01:21:48;;;;;;;;;;;16.30;99.90;;;;;;5103326;28;19923;-65
2023/06/10 01:24:14;;;;;;;;;;;16.30;99.90;;;;;;5113678;28;19930;-66
2023/06/10 01:26:41;;;;;;;;;;;16.20;99.90;;;;;;5113949;28;19938;-65
2023/06/10 01:29:08;;;;;;;;;;;16.40;99.90;;;;;;5107960;28;19924;-66
2023/06/10 01:31:49;;;;;;;;;;;16.20;99.90;;;;;;5092442;28;19924;-66
2023/06/10 01:34:16;;;;;;;;;;;16.10;99.90;;;;;;5113558;28;19924;-66
2023/06/10 01:36:45;;;;;;;;;;;16.20;99.90;;;;;;5113822;28;19927;-66
2023/06/10 01:39:11;;;;;;;;;;;16.10;99.90;;;;;;5110204;28;20388;-66
2023/06/10 01:41:37;;;;;;;;;;;16.10;99.90;;;;;;5092435;28;20403;-65
2023/06/10 01:44:03;;;;;;;;;;;16.10;99.90;;;;;;5113457;28;19924;-65
2023/06/10 01:46:28;;;;;;;;;;;16.00;99.90;;;;;;5112960;28;19935;-66
2023/06/10 01:48:54;;;;;;;;;;;16.00;99.90;;;;;;5095560;28;19931;-65
2023/06/10 01:51:19;;;;;;;;;;;15.90;99.90;;;;;;5109941;28;20407;-66
2023/06/10 01:53:45;;;;;;;;;;;15.90;99.90;;;;;;5112471;28;19924;-66
2023/06/10 01:56:16;;;;;;;;;;;15.90;99.90;;;;;;5112893;28;19924;-66
2023/06/10 01:58:42;;;;;;;;;;;15.80;99.90;;;;;;5094926;28;19923;-67
2023/06/10 02:01:07;;;;;;;;;;;15.80;99.90;;;;;;5113157;28;20034;-66
2023/06/10 02:03:33;;;;;;;;;;;15.80;99.90;;;;;;5105627;28;19928;-66
2023/06/10 02:05:58;;;;;;;;;;;15.70;99.90;;;;;;5113520;28;19927;-65
2023/06/10 02:08:24;;;;;;;;;;;15.70;99.90;;;;;;5077326;28;19924;-65
2023/06/10 02:10:50;;;;;;;;;;;15.70;99.90;;;;;;5095139;28;19927;-66
2023/06/10 02:13:15;;;;;;;;;;;15.60;99.90;;;;;;5094326;28;19923;-65
2023/06/10 02:15:41;;;;;;;;;;;15.60;99.90;;;;;;5099141;28;19960;-65
2023/06/10 02:18:06;;;;;;;;;;;15.50;99.90;;;;;;5106024;28;19927;-65
2023/06/10 02:20:32;;;;;;;;;;;15.50;99.90;;;;;;5092258;28;20014;-65
2023/06/10 02:22:58;;;;;;;;;;;15.40;99.90;;;;;;5113198;28;19928;-65
2023/06/10 02:25:24;;;;;;;;;;;15.40;99.90;;;;;;5093944;28;19930;-66
2023/06/10 02:27:50;;;;;;;;;;;15.40;99.90;;;;;;5106503;28;20351;-66
2023/06/10 02:30:16;;;;;;;;;;;15.40;99.90;;;;;;5094776;28;20211;-65
2023/06/10 02:32:41;;;;;;;;;;;15.40;99.90;;;;;;5096351;28;19923;-65
2023/06/10 02:35:07;;;;;;;;;;;15.30;99.90;;;;;;5112815;28;19969;-66
2023/06/10 02:37:32;;;;;;;;;;;15.20;99.90;;;;;;5112148;28;19955;-66
2023/06/10 02:39:58;;;;;;;;;;;15.20;99.90;;;;;;5108466;28;19924;-66
2023/06/10 02:42:24;;;;;;;;;;;15.10;99.90;;;;;;5107970;28;19923;-67
2023/06/10 02:44:49;;;;;;;;;;;15.00;99.90;;;;;;5112731;28;20426;-66
2023/06/10 02:47:15;;;;;;;;;;;15.00;99.90;;;;;;5112547;28;19927;-65
2023/06/10 02:49:41;;;;;;;;;;;15.00;99.90;;;;;;5093819;28;20424;-66
2023/06/10 02:52:07;;;;;;;;;;;15.00;99.90;;;;;;5112487;28;19946;-66
2023/06/10 02:54:33;;;;;;;;;;;14.90;99.90;;;;;;5107047;28;19924;-67
2023/06/10 02:56:59;;;;;;;;;;;14.90;99.90;;;;;;5112150;28;19927;-67
2023/06/10 02:59:26;;;;;;;;;;;14.90;99.90;;;;;;5112028;28;20292;-66
2023/06/10 03:01:52;;;;;;;;;;;14.80;99.90;;;;;;5112353;28;20230;-65
2023/06/10 03:04:18;;;;;;;;;;;14.80;99.90;;;;;;5093759;28;20010;-66
2023/06/10 03:06:45;;;;;;;;;;;14.70;99.90;;;;;;5110964;28;19930;-65
2023/06/10 03:09:11;;;;;;;;;;;14.70;99.90;;;;;;5112100;28;19943;-66
2023/06/10 03:11:36;;;;;;;;;;;14.70;99.90;;;;;;5089853;28;19931;-66
2023/06/10 03:14:02;;;;;;;;;;;14.60;99.90;;;;;;5077136;28;19930;-66
2023/06/10 03:16:27;;;;;;;;;;;14.60;99.90;;;;;;5111622;28;20293;-67
2023/06/10 03:18:53;;;;;;;;;;;14.50;99.90;;;;;;5108371;28;19927;-64
2023/06/10 03:21:19;;;;;;;;;;;14.50;99.90;;;;;;5094378;28;20563;-65
2023/06/10 03:23:45;;;;;;;;;;;14.50;99.90;;;;;;5101339;28;20010;-66
2023/06/10 03:26:12;;;;;;;;;;;14.40;99.90;;;;;;5105045;28;20011;-65
2023/06/10 03:28:37;;;;;;;;;;;14.40;99.90;;;;;;5110753;28;19924;-66
2023/06/10 03:31:03;;;;;;;;;;;14.40;99.90;;;;;;5103389;28;19934;-66
2023/06/10 03:33:29;;;;;;;;;;;14.30;99.90;;;;;;5093519;28;19970;-68
2023/06/10 03:35:55;;;;;;;;;;;14.30;99.90;;;;;;5111300;28;19924;-66
2023/06/10 03:38:21;;;;;;;;;;;14.30;99.90;;;;;;5111750;28;19923;-66
2023/06/10 03:40:46;;;;;;;;;;;14.30;99.90;;;;;;5110891;28;20403;-66
2023/06/10 03:43:12;;;;;;;;;;;14.20;99.90;;;;;;5106299;28;19931;-66
2023/06/10 03:45:38;;;;;;;;;;;14.20;99.90;;;;;;5110938;28;19923;-66
2023/06/10 03:48:04;;;;;;;;;;;14.20;99.90;;;;;;5111447;28;19924;-67
2023/06/10 03:50:29;;;;;;;;;;;14.20;99.90;;;;;;5111518;28;20320;-67
2023/06/10 03:52:55;;;;;;;;;;;14.20;99.90;;;;;;5110792;28;19936;-66
2023/06/10 03:55:21;;;;;;;;;;;14.20;99.90;;;;;;5090485;28;19931;-66
2023/06/10 03:57:48;;;;;;;;;;;14.20;99.90;;;;;;5096160;28;19924;-65
2023/06/10 04:00:15;;;;;;;;;;;14.10;99.90;;;;;;5111491;28;19971;-65
2023/06/10 04:02:45;;;;;;;;;;;14.10;99.90;;;;;;5110233;28;20450;-65
2023/06/10 04:05:11;;;;;;;;;;;14.10;99.90;;;;;;5111299;28;19927;-65
2023/06/10 04:07:39;;;;;;;;;;;14.10;99.90;;;;;;5103954;28;19924;-66
2023/06/10 04:10:05;;;;;;;;;;;14.10;99.90;;;;;;5090994;28;20011;-66
2023/06/10 04:12:31;;;;;;;;;;;14.10;99.90;;;;;;5089764;28;20007;-65
2023/06/10 04:14:56;;;;;;;;;;;14.10;99.90;;;;;;5110312;28;19934;-66
2023/06/10 04:17:22;;;;;;;;;;;14.10;99.90;;;;;;5111221;28;20030;-66
2023/06/10 04:19:48;;;;;;;;;;;14.10;99.90;;;;;;5104535;28;20266;-65
2023/06/10 04:22:13;;;;;;;;;;;14.10;99.90;;;;;;5098682;28;19923;-66
2023/06/10 04:24:39;;;;;;;;;;;14.10;99.90;;;;;;5110670;28;19947;-66
2023/06/10 04:27:05;;;;;;;;;;;14.10;99.90;;;;;;5110791;28;20390;-66
2023/06/10 04:29:30;;;;;;;;;;;14.20;99.90;;;;;;5111143;28;19930;-66
2023/06/10 04:31:56;;;;;;;;;;;14.20;99.90;;;;;;5108634;28;19978;-66
2023/06/10 04:34:21;;;;;;;;;;;14.30;99.90;;;;;;5110956;28;19974;-66
2023/06/10 04:36:47;;;;;;;;;;;14.30;99.90;;;;;;5092084;28;19931;-66
2023/06/10 04:39:13;;;;;;;;;;;14.40;99.90;;;;;;5114775;28;19985;-66
2023/06/10 04:41:38;;;;;;;;;;;14.50;99.90;;;;;;5096690;28;19923;-67
2023/06/10 04:44:04;;;;;;;;;;;14.60;99.90;;;;;;5106232;28;19928;-66
2023/06/10 04:46:31;;;;;;;;;;;14.70;99.90;;;;;;5110592;28;19936;-66
2023/06/10 04:48:57;;;;;;;;;;;15.00;99.90;;;;;;5079100;28;20323;-66
2023/06/10 04:51:22;;;;;;;;;;;15.50;99.90;;;;;;5114537;28;19924;-65
2023/06/10 04:53:48;;;;;;;;;;;16.10;99.90;;;;;;5114203;28;19967;-65
2023/06/10 04:56:15;;;;;;;;;;;16.80;99.90;;;;;;5111769;28;19927;-66
2023/06/10 04:58:40;;;;;;;;;;;17.60;99.90;;;;;;5094645;28;19930;-67
2023/06/10 05:01:06;;;;;;;;;;;18.20;99.90;;;;;;5114259;28;20601;-66
2023/06/10 05:03:32;;;;;;;;;;;18.80;99.90;;;;;;5114674;28;19939;-66
2023/06/10 05:05:57;;;;;;;;;;;19.40;99.90;;;;;;5114091;28;20018;-66
2023/06/10 05:08:23;;;;;;;;;;;20.00;99.90;;;;;;5095713;28;20368;-66
2023/06/10 05:10:49;;;;;;;;;;;20.30;99.90;;;;;;5112770;28;19924;-66
2023/06/10 05:13:15;;;;;;;;;;;20.60;99.90;;;;;;5106756;28;19971;-66
2023/06/10 05:15:44;;;;;;;;;;;20.80;99.90;;;;;;5103801;28;19928;-66
2023/06/10 05:18:10;;;;;;;;;;;21.00;99.90;;;;;;5113911;28;19932;-67
2023/06/10 05:20:36;;;;;;;;;;;21.50;99.90;;;;;;5102190;28;19947;-66
2023/06/10 05:23:01;;;;;;;;;;;21.60;99.90;;;;;;5107905;28;20372;-67
2023/06/10 05:25:28;;;;;;;;;;;21.90;99.90;;;;;;5114333;28;19928;-66
2023/06/10 05:27:53;;;;;;;;;;;22.10;99.90;;;;;;5095587;28;20400;-66
2023/06/10 05:30:19;;;;;;;;;;;22.20;99.90;;;;;;5112561;28;19931;-67
2023/06/10 05:32:44;;;;;;;;;;;22.30;99.90;;;;;;5114002;28;19924;-67
2023/06/10 05:35:10;;;;;;;;;;;22.40;99.90;;;;;;5113803;28;19963;-66
2023/06/10 05:37:36;;;;;;;;;;;22.40;99.90;;;;;;5075066;28;19935;-65
2023/06/10 05:40:06;;;;;;;;;;;22.60;99.90;;;;;;5110500;28;19967;-66
2023/06/10 05:42:31;;;;;;;;;;;23.00;99.90;;;;;;5067101;28;19932;-65
2023/06/10 05:44:57;;;;;;;;;;;23.40;99.90;;;;;;5095071;28;19924;-66
2023/06/10 05:47:22;;;;;;;;;;;23.80;99.90;;;;;;5113546;28;20296;-66
2023/06/10 05:49:49;;;;;;;;;;;24.10;99.90;;;;;;5112369;28;19934;-68
2023/06/10 05:52:15;;;;;;;;;;;24.10;99.90;;;;;;5092855;28;19924;-66
2023/06/10 05:54:40;;;;;;;;;;;24.00;99.90;;;;;;5113464;28;20661;-66
2023/06/10 05:57:06;;;;;;;;;;;24.20;99.90;;;;;;5106444;28;20030;-66
2023/06/10 05:59:32;;;;;;;;;;;24.10;99.90;;;;;;5094645;28;19947;-65
2023/06/10 06:01:58;;;;;;;;;;;24.10;99.90;;;;;;5112977;28;19931;-67
2023/06/10 06:04:23;;;;;;;;;;;24.30;99.70;;;;;;5087555;28;19924;-66
2023/06/10 06:06:49;;;;;;;;;;;24.30;99.90;;;;;;5110995;28;19943;-66
2023/06/10 06:09:14;;;;;;;;;;;24.60;99.90;;;;;;5102497;28;19968;-67
2023/06/10 06:11:41;;;;;;;;;;;24.80;99.90;;;;;;5084752;28;20345;-66
2023/06/10 06:14:06;;;;;;;;;;;24.80;99.50;;;;;;5077912;28;19928;-67
2023/06/10 06:16:32;;;;;;;;;;;25.30;99.90;;;;;;5112864;28;19934;-69
2023/06/10 06:18:58;;;;;;;;;;;26.00;98.70;;;;;;5098466;28;19931;-67
2023/06/10 06:21:23;;;;;;;;;;;26.30;98.50;;;;;;5108734;28;20003;-67
2023/06/10 06:23:49;;;;;;;;;;;26.60;98.50;;;;;;5113061;28;19971;-64
2023/06/10 06:26:15;;;;;;;;;;;26.80;98.30;;;;;;5112487;28;20404;-66
2023/06/10 06:28:40;;;;;;;;;;;27.20;97.70;;;;;;5103968;28;19924;-66
2023/06/10 06:31:07;;;;;;;;;;;27.40;97.00;;;;;;5112405;28;20006;-66
2023/06/10 06:33:32;;;;;;;;;;;27.00;96.50;;;;;;5094617;28;19924;-66
2023/06/10 06:36:00;;;;;;;;;;;27.00;96.20;;;;;;5112179;28;19935;-66
2023/06/10 06:38:26;;;;;;;;;;;26.90;96.30;;;;;;5109356;28;19928;-66
2023/06/10 06:40:51;;;;;;;;;;;26.90;96.50;;;;;;5063026;28;19972;-66
2023/06/10 06:43:18;;;;;;;;;;;26.80;96.00;;;;;;5112215;28;20431;-67
2023/06/10 06:45:44;;;;;;;;;;;27.30;96.50;;;;;;5094237;28;19924;-66
2023/06/10 06:48:10;;;;;;;;;;;27.70;95.60;;;;;;5112030;28;20385;-66
2023/06/10 06:50:36;;;;;;;;;;;28.00;94.60;;;;;;5090821;28;19930;-65
2023/06/10 06:53:02;;;;;;;;;;;28.20;95.40;;;;;;5111763;28;19924;-66
2023/06/10 06:55:27;;;;;;;;;;;28.10;95.10;;;;;;5112457;28;19924;-66
2023/06/10 06:57:53;;;;;;;;;;;28.10;94.60;;;;;;5112225;28;19927;-66
2023/06/10 07:00:19;;;;;;;;;;;28.20;94.20;;;;;;5088199;28;20439;-67
2023/06/10 07:02:44;;;;;;;;;;;28.00;94.30;;;;;;5110847;28;19940;-67
2023/06/10 07:05:10;;;;;;;;;;;28.00;94.10;;;;;;5111704;28;20010;-67
2023/06/10 07:07:36;;;;;;;;;;;28.20;94.40;;;;;;5112025;28;19924;-66
2023/06/10 07:10:01;;;;;;;;;;;28.10;93.90;;;;;;5108072;28;19932;-67
2023/06/10 07:12:27;;;;;;;;;;;28.20;94.20;;;;;;5096821;28;20000;-67
2023/06/10 07:14:52;;;;;;;;;;;28.30;94.10;;;;;;5108952;28;20407;-66
2023/06/10 07:17:18;;;;;;;;;;;28.70;94.40;;;;;;5090725;28;20046;-66
2023/06/10 07:19:45;;;;;;;;;;;29.10;94.40;;;;;;5111697;28;19959;-66
2023/06/10 07:22:10;;;;;;;;;;;29.60;93.70;;;;;;5101386;28;19924;-66
2023/06/10 07:24:36;;;;;;;;;;;29.70;93.90;;;;;;5109504;28;20060;-67
2023/06/10 07:27:01;;;;;;;;;;;29.80;92.90;;;;;;5093003;28;20380;-67
2023/06/10 07:29:27;;;;;;;;;;;29.50;92.40;;;;;;5111342;28;19924;-66
2023/06/10 07:31:53;;;;;;;;;;;29.40;92.90;;;;;;5105230;28;19924;-66
2023/06/10 07:34:19;;;;;;;;;;;29.40;93.30;;;;;;5076356;28;19926;-65
2023/06/10 07:36:44;;;;;;;;;;;29.30;93.00;;;;;;5110283;28;19923;-66
2023/06/10 07:39:11;;;;;;;;;;;29.80;92.90;;;;;;5110902;28;19967;-67
2023/06/10 07:41:36;;;;;;;;;;;30.20;93.00;;;;;;5109706;28;20301;-66
2023/06/10 07:44:02;;;;;;;;;;;30.20;93.00;;;;;;5111532;28;19985;-67
2023/06/10 07:46:28;;;;;;;;;;;30.00;92.10;;;;;;5111242;28;19931;-66
2023/06/10 07:48:54;;;;;;;;;;;30.00;92.20;;;;;;5111349;28;19927;-67
2023/06/10 07:51:20;;;;;;;;;;;30.00;92.50;;;;;;5092653;28;19939;-66
2023/06/10 07:53:45;;;;;;;;;;;30.00;92.20;;;;;;5105019;28;19928;-66
2023/06/10 07:56:11;;;;;;;;;;;29.90;92.20;;;;;;5110676;28;20391;-66
2023/06/10 07:58:37;;;;;;;;;;;29.80;92.20;;;;;;5103105;28;19924;-67
2023/06/10 08:01:02;;;;;;;;;;;29.90;92.50;;;;;;5107159;28;19935;-67
2023/06/10 08:03:28;;;;;;;;;;;29.90;91.80;;;;;;5088363;28;19924;-67
2023/06/10 08:05:54;;;;;;;;;;;29.90;91.90;;;;;;5111105;28;19924;-67
2023/06/10 08:08:19;;;;;;;;;;;29.80;92.10;;;;;;5088011;28;19997;-67
2023/06/10 08:10:45;;;;;;;;;;;30.10;92.10;;;;;;5111410;28;19924;-67
2023/06/10 08:13:10;;;;;;;;;;;30.30;92.20;;;;;;5111029;28;20442;-68
2023/06/10 08:15:36;;;;;;;;;;;30.20;92.30;;;;;;5103786;28;19928;-66
2023/06/10 08:18:02;;;;;;;;;;;30.40;92.30;;;;;;5110464;28;19963;-67
2023/06/10 08:20:27;;;;;;;;;;;30.50;91.80;;;;;;5115082;28;19928;-67
2023/06/10 08:22:53;;;;;;;;;;;30.50;91.80;;;;;;5115545;28;19931;-67
2023/06/10 08:25:18;;;;;;;;;;;30.60;91.70;;;;;;5089536;28;19924;-67
2023/06/10 08:27:44;;;;;;;;;;;30.90;91.40;;;;;;5113603;28;20301;-67
2023/06/10 08:30:10;;;;;;;;;;;31.10;91.80;;;;;;5096637;28;19928;-69
2023/06/10 08:32:36;;;;;;;;;;;31.50;91.10;;;;;;5080077;28;19928;-67
2023/06/10 08:35:02;;;;;;;;;;;31.70;90.70;;;;;;5110817;28;19924;-67
2023/06/10 08:37:28;;;;;;;;;;;31.50;90.40;;;;;;5083562;28;19981;-67
2023/06/10 08:39:54;;;;;;;;;;;31.40;91.20;;;;;;5115271;28;19928;-67
2023/06/10 08:42:24;;;;;;;;;;;31.30;90.50;;;;;;5114274;28;19993;-67
2023/06/10 08:44:58;;;;;;;;;;;31.30;91.00;;;;;;5089065;28;20453;-67
2023/06/10 08:47:25;;;;;;;;;;;31.30;90.60;;;;;;5076187;28;19924;-67
2023/06/10 08:49:52;;;;;;;;;;;30.90;90.60;;;;;;5114388;28;19927;-67
2023/06/10 08:52:18;;;;;;;;;;;30.60;90.70;;;;;;5096330;28;19931;-68
2023/06/10 08:55:00;;;;;;;;;;;30.60;90.80;;;;;;5095878;28;19920;-71
2023/06/10 08:57:26;;;;;;;;;;;30.60;91.20;;;;;;5097258;28;19920;-71
2023/06/10 08:59:53;;;;;;;;;;;30.90;91.60;;;;;;5081333;28;19920;-71
2023/06/10 09:02:20;;;;;;;;;;;31.00;91.30;;;;;;5097842;28;19941;-71
2023/06/10 09:04:49;;;;;;;;;;;31.10;91.00;;;;;;5081253;28;19920;-71
2023/06/10 09:07:18;;;;;;;;;;;31.30;91.20;;;;;;5064014;28;19926;-71
2023/06/10 09:09:44;;;;;;;;;;;31.10;90.80;;;;;;5081085;28;19943;-72
2023/06/10 09:12:10;;;;;;;;;;;30.90;90.80;;;;;;5080914;28;19924;-72
2023/06/10 09:14:36;;;;;;;;;;;30.90;91.00;;;;;;5080657;28;20430;-72
2023/06/10 09:17:03;;;;;;;;;;;30.90;90.80;;;;;;5097751;28;20026;-72
2023/06/10 09:19:29;;;;;;;;;;;30.90;90.70;;;;;;5079956;28;19920;-71
2023/06/10 09:21:54;;;;;;;;;;;30.90;91.00;;;;;;5080766;28;19920;-72
2023/06/10 09:24:24;;;;;;;;;;;30.90;90.30;;;;;;5063701;28;19926;-72
2023/06/10 09:26:50;;;;;;;;;;;30.60;91.00;;;;;;5115564;28;19923;-72
2023/06/10 09:29:16;;;;;;;;;;;30.50;90.60;;;;;;5080551;28;19920;-72
2023/06/10 09:31:43;;;;;;;;;;;30.50;91.00;;;;;;5115355;28;19926;-72
2023/06/10 09:34:13;;;;;;;;;;;30.30;90.50;;;;;;5097115;28;19926;-72
2023/06/10 09:36:39;;;;;;;;;;;30.20;91.20;;;;;;5097242;28;19923;-72
2023/06/10 09:39:05;;;;;;;;;;;30.20;91.00;;;;;;5114921;28;20390;-72
2023/06/10 09:41:35;;;;;;;;;;;30.20;90.60;;;;;;5079799;28;20384;-72
2023/06/10 09:44:00;;;;;;;;;;;30.40;90.40;;;;;;5097112;28;19919;-72
2023/06/10 09:46:30;;;;;;;;;;;30.20;90.60;;;;;;5097052;28;19919;-72
2023/06/10 09:48:57;;;;;;;;;;;30.20;90.50;;;;;;5096872;28;19923;-71
2023/06/10 09:51:23;;;;;;;;;;;30.30;90.60;;;;;;5080049;28;19958;-72
2023/06/10 09:53:50;;;;;;;;;;;30.10;90.30;;;;;;5096519;28;19926;-72
2023/06/10 09:56:15;;;;;;;;;;;30.00;90.40;;;;;;5096841;28;20226;-71
2023/06/10 09:58:43;;;;;;;;;;;30.00;90.60;;;;;;5079266;28;20099;-72
2023/06/10 10:01:09;;;;;;;;;;;29.70;90.60;;;;;;5096785;28;19919;-71
2023/06/10 10:03:45;;;;;;;;;;;29.20;90.00;;;;;;5063119;28;20277;-71
2023/06/10 10:06:11;;;;;;;;;;;29.00;90.00;;;;;;5096898;28;20260;-71
2023/06/10 10:08:36;;;;;;;;;;;28.70;90.90;;;;;;5114393;28;19927;-72
2023/06/10 10:11:02;;;;;;;;;;;28.70;90.80;;;;;;5096374;28;20002;-72
2023/06/10 10:13:28;;;;;;;;;;;28.60;90.70;;;;;;5096299;28;19919;-71
2023/06/10 10:15:56;;;;;;;;;;;28.40;91.00;;;;;;5096638;28;19943;-72
2023/06/10 10:18:28;;;;;;;;;;;28.40;90.80;;;;;;5079684;28;20035;-71
2023/06/10 10:20:55;;;;;;;;;;;28.30;90.90;;;;;;5096478;28;19923;-71
2023/06/10 10:23:33;;;;;;;;;;;28.20;91.30;;;;;;5079692;28;19920;-71
2023/06/10 10:26:00;;;;;;;;;;;28.20;90.90;;;;;;5096648;28;19991;-71
2023/06/10 10:28:33;;;;;;;;;;;28.10;91.40;;;;;;5079033;28;19920;-70
2023/06/10 10:31:02;;;;;;;;;;;28.20;91.40;;;;;;5114502;28;19919;-70
2023/06/10 10:33:57;;;;;;;;;;;28.20;91.10;;;;;;5095984;28;19924;-70
2023/06/10 10:36:23;;;;;;;;;;;28.10;91.20;;;;;;5077868;28;20366;-69
2023/06/10 10:38:51;;;;;;;;;;;28.00;91.20;;;;;;5095593;28;19920;-69
2023/06/10 10:41:17;;;;;;;;;;;27.90;91.50;;;;;;5079334;28;19920;-69
2023/06/10 10:43:43;;;;;;;;;;;27.70;91.20;;;;;;5095860;28;19920;-70
2023/06/10 10:46:13;;;;;;;;;;;27.70;91.00;;;;;;5095653;28;19970;-70
2023/06/10 10:48:41;;;;;;;;;;;27.70;90.70;;;;;;5078238;28;19924;-71
2023/06/10 10:51:07;;;;;;;;;;;27.80;90.90;;;;;;5113919;28;20254;-71
2023/06/10 10:53:32;;;;;;;;;;;27.80;91.60;;;;;;5095192;28;20287;-71
2023/06/10 10:55:59;;;;;;;;;;;27.80;91.30;;;;;;5078684;28;20022;-70
2023/06/10 10:58:25;;;;;;;;;;;27.60;91.50;;;;;;5078056;28;20010;-70
2023/06/10 11:00:51;;;;;;;;;;;27.50;91.60;;;;;;5094793;28;19919;-70
2023/06/10 11:03:17;;;;;;;;;;;27.30;91.40;;;;;;5078341;28;19942;-71
2023/06/10 11:05:47;;;;;;;;;;;27.20;91.30;;;;;;5078384;28;20008;-70
2023/06/10 11:08:13;;;;;;;;;;;27.20;91.20;;;;;;5095194;28;19989;-71
2023/06/10 11:10:40;;;;;;;;;;;27.10;91.10;;;;;;5077872;28;19930;-71
2023/06/10 11:13:13;;;;;;;;;;;27.10;91.00;;;;;;5094700;28;19920;-71
2023/06/10 11:15:40;;;;;;;;;;;27.20;91.00;;;;;;5094707;28;19927;-72
2023/06/10 11:18:06;;;;;;;;;;;27.20;90.50;;;;;;5094782;28;19969;-71
2023/06/10 11:20:55;;;;;;;;;;;27.30;90.80;;;;;;5077802;28;19926;-71
2023/06/10 11:23:27;;;;;;;;;;;27.30;91.10;;;;;;5066913;28;19927;-71
2023/06/10 11:26:11;;;;;;;;;;;27.30;92.20;;;;;;5077522;28;19984;-70
2023/06/10 11:28:37;;;;;;;;;;;27.20;92.20;;;;;;5077757;28;19920;-72
2023/06/10 11:31:03;;;;;;;;;;;27.10;92.00;;;;;;5078564;28;19926;-70
2023/06/10 11:33:29;;;;;;;;;;;27.10;91.80;;;;;;5095357;28;19920;-69
2023/06/10 11:35:55;;;;;;;;;;;27.00;92.20;;;;;;5094836;28;20030;-70
2023/06/10 11:38:20;;;;;;;;;;;27.00;92.20;;;;;;5078101;28;20353;-71
2023/06/10 11:40:48;;;;;;;;;;;27.00;92.50;;;;;;5078001;28;19959;-71
2023/06/10 11:43:14;;;;;;;;;;;27.20;92.60;;;;;;5077868;28;20377;-70
2023/06/10 11:45:41;;;;;;;;;;;27.30;92.70;;;;;;5094124;28;19928;-71
2023/06/10 11:48:09;;;;;;;;;;;27.30;92.60;;;;;;5112007;28;19928;-71
2023/06/10 11:50:34;;;;;;;;;;;27.30;92.30;;;;;;5077868;28;19947;-71
2023/06/10 11:53:00;;;;;;;;;;;27.20;92.40;;;;;;5077695;28;19923;-71
2023/06/10 11:55:39;;;;;;;;;;;27.20;92.30;;;;;;5094826;28;19927;-71
2023/06/10 11:58:05;;;;;;;;;;;27.20;92.20;;;;;;5094251;28;19982;-71
2023/06/10 12:00:30;;;;;;;;;;;27.30;92.30;;;;;;5094658;28;19959;-71
2023/06/10 12:02:59;;;;;;;;;;;27.30;92.00;;;;;;5112369;28;19934;-71
2023/06/10 12:05:24;;;;;;;;;;;27.20;91.80;;;;;;5077866;28;19923;-72
2023/06/10 12:08:05;;;;;;;;;;;27.10;91.60;;;;;;5060443;28;19930;-71
2023/06/10 12:10:31;;;;;;;;;;;27.20;91.50;;;;;;5094606;28;20311;-71
2023/06/10 12:12:56;;;;;;;;;;;27.20;91.80;;;;;;5094064;28;19924;-71
2023/06/10 12:15:25;;;;;;;;;;;27.10;92.00;;;;;;5094346;28;19924;-71
2023/06/10 12:17:51;;;;;;;;;;;27.00;92.00;;;;;;5093947;28;19936;-71
2023/06/10 12:20:27;;;;;;;;;;;27.00;91.70;;;;;;5077570;28;19976;-71
2023/06/10 12:22:53;;;;;;;;;;;27.00;92.80;;;;;;5094080;28;19923;-71
2023/06/10 12:25:24;;;;;;;;;;;27.00;93.20;;;;;;5077478;28;19924;-71
2023/06/10 12:27:51;;;;;;;;;;;27.10;93.00;;;;;;5093443;28;20416;-71
2023/06/10 12:30:19;;;;;;;;;;;27.10;92.90;;;;;;5077364;28;19924;-71
2023/06/10 12:32:46;;;;;;;;;;;27.00;93.20;;;;;;5094002;28;19931;-71
2023/06/10 12:35:19;;;;;;;;;;;27.00;93.70;;;;;;5077703;28;19932;-71
2023/06/10 12:37:55;;;;;;;;;;;27.00;93.50;;;;;;5077394;28;20010;-71
2023/06/10 12:40:25;;;;;;;;;;;27.00;93.40;;;;;;5094553;28;20010;-71
2023/06/10 12:42:51;;;;;;;;;;;27.10;94.30;;;;;;5093922;28;19924;-71
2023/06/10 12:45:26;;;;;;;;;;;27.10;93.50;;;;;;5060248;28;19920;-71
2023/06/10 12:47:51;;;;;;;;;;;27.10;93.50;;;;;;5093889;28;19924;-72
2023/06/10 12:50:17;;;;;;;;;;;26.90;93.60;;;;;;5077172;28;19924;-72
2023/06/10 12:52:42;;;;;;;;;;;26.90;93.40;;;;;;5060722;28;20334;-78
2023/06/10 12:55:08;;;;;;;;;;;26.90;93.80;;;;;;5077519;28;19920;-70
2023/06/10 12:57:34;;;;;;;;;;;27.00;93.90;;;;;;5094004;28;19931;-70
2023/06/10 13:00:03;;;;;;;;;;;27.10;93.70;;;;;;5080826;28;19951;-70
2023/06/10 13:02:29;;;;;;;;;;;27.10;93.40;;;;;;5081685;28;19977;-70
2023/06/10 13:04:55;;;;;;;;;;;26.90;93.30;;;;;;5115761;28;20281;-70
2023/06/10 13:07:22;;;;;;;;;;;26.90;93.20;;;;;;5098009;28;19924;-70
2023/06/10 13:09:49;;;;;;;;;;;26.80;93.40;;;;;;5080532;28;20292;-70
2023/06/10 13:12:14;;;;;;;;;;;26.80;93.50;;;;;;5098056;28;20266;-70
2023/06/10 13:14:40;;;;;;;;;;;26.80;93.30;;;;;;5115669;28;20010;-70
2023/06/10 13:17:06;;;;;;;;;;;26.70;93.70;;;;;;5097625;28;20102;-70
2023/06/10 13:19:34;;;;;;;;;;;26.60;93.50;;;;;;5097892;28;19923;-70
2023/06/10 13:22:00;;;;;;;;;;;26.50;93.70;;;;;;5064022;28;19924;-70
2023/06/10 13:24:27;;;;;;;;;;;26.50;93.90;;;;;;5097669;28;20393;-70
2023/06/10 13:26:52;;;;;;;;;;;26.50;93.80;;;;;;5115329;28;20019;-70
2023/06/10 13:29:18;;;;;;;;;;;26.50;94.10;;;;;;5063805;28;19967;-70
2023/06/10 13:31:43;;;;;;;;;;;26.50;93.90;;;;;;5097401;28;19923;-70
2023/06/10 13:34:09;;;;;;;;;;;26.50;94.20;;;;;;5080424;28;20336;-70
2023/06/10 13:36:35;;;;;;;;;;;26.60;94.10;;;;;;5097218;28;19977;-70
2023/06/10 13:39:01;;;;;;;;;;;26.70;94.10;;;;;;5097146;28;19924;-70
2023/06/10 13:41:28;;;;;;;;;;;26.70;94.30;;;;;;5115408;28;20322;-70
2023/06/10 13:43:54;;;;;;;;;;;26.70;93.70;;;;;;5080422;28;20388;-70
2023/06/10 13:46:21;;;;;;;;;;;26.70;93.60;;;;;;5080448;28;19928;-70
2023/06/10 13:48:47;;;;;;;;;;;26.70;93.80;;;;;;5097029;28;19923;-70
2023/06/10 13:51:12;;;;;;;;;;;26.60;93.50;;;;;;5096826;28;20270;-70
2023/06/10 13:53:38;;;;;;;;;;;26.60;92.80;;;;;;5096855;28;20092;-70
2023/06/10 13:56:04;;;;;;;;;;;26.50;91.50;;;;;;5096545;28;19931;-69
2023/06/10 13:58:29;;;;;;;;;;;26.50;91.90;;;;;;5076282;28;20023;-70
2023/06/10 14:00:55;;;;;;;;;;;26.50;92.10;;;;;;5114253;28;20377;-70
2023/06/10 14:03:20;;;;;;;;;;;26.50;92.40;;;;;;5096635;28;19931;-71
2023/06/10 14:05:46;;;;;;;;;;;26.50;92.20;;;;;;5114534;28;19928;-70
2023/06/10 14:08:12;;;;;;;;;;;26.50;91.30;;;;;;5079357;28;19976;-70
2023/06/10 14:10:37;;;;;;;;;;;26.50;91.40;;;;;;5079042;28;19924;-71
2023/06/10 14:13:03;;;;;;;;;;;26.50;91.50;;;;;;5096277;28;19924;-70